KFMN

Four Corners Regional Airport

Farmington, New Mexico, USA
METAR KFMN 141653Z 11005KT 10SM CLR M04/M11 A3047 RMK AO2 SLP356 T10391106
Observed Flight Rules
Dec-14 @ 16:53 UTC (11 minutes ago) Visual Flight Rules
Wind Visibility Clouds
110° at 5 knots 10 miles
  • Clear skies
Temperatures Readings
Current -4°C / 25°F
Dewpoint -11°C / 12°F
Humidity 59%
Altimeter 30.47" Hg
Pressure 1035.6 hPa
Elevation 1685
METAR KFMN 141653Z 11005KT 10SM CLR M04/M11 A3047 RMK AO2 SLP356 T10391106
Observed Flight Rules
Dec-14 @ 16:53 UTC
(11 minutes ago)
VFR
Wind Visibility
110° at 5 knots 10 miles
Clouds
  • Clear skies
Temperature Dewpoint
-4°C / 25°F -11°C / 12°F
Humidity Altimeter Pressure
59% 30.47" Hg 1035.6 hPa